Time;durP1;ratioP1;P1;durP2;ratioP2;P2;SDS_P1;SDS_P2;PMS_P1;PMS_P2;Temp;Humidity;BMP_temperature;BMP_pressure;BME280_temperature;BME280_humidity;BME280_pressure;Samples;Min_cycle;Max_cycle;Signal;HPM_P1;HPM_P2
2023/08/13 00:01:41;;;;;;;3.42;1.45;;;17.50;99.90;;;;;;5052346;28;20074;-85
2023/08/13 00:04:07;;;;;;;5.28;1.77;;;17.40;99.90;;;;;;5051713;28;20482;-86
2023/08/13 00:06:33;;;;;;;2.75;1.15;;;17.50;99.90;;;;;;5050797;28;20017;-86
2023/08/13 00:08:58;;;;;;;4.25;1.17;;;17.50;99.90;;;;;;5052103;28;20090;-86
2023/08/13 00:11:24;;;;;;;4.50;1.13;;;17.40;99.90;;;;;;5050536;28;20383;-86
2023/08/13 00:13:50;;;;;;;4.45;1.50;;;17.40;99.90;;;;;;5051673;28;20063;-86
2023/08/13 00:16:15;;;;;;;2.83;1.20;;;17.40;99.90;;;;;;5050858;28;20033;-87
2023/08/13 00:18:41;;;;;;;5.72;1.25;;;17.40;99.90;;;;;;5052050;28;20033;-87
2023/08/13 00:21:07;;;;;;;6.35;1.67;;;17.30;99.90;;;;;;5051935;28;20105;-87
2023/08/13 00:23:32;;;;;;;2.17;1.08;;;17.20;99.90;;;;;;5051367;28;20029;-87
2023/08/13 00:25:58;;;;;;;7.35;1.38;;;17.10;99.90;;;;;;5050610;28;20071;-87
2023/08/13 00:28:24;;;;;;;7.95;1.55;;;17.10;99.90;;;;;;5053481;28;20053;-87
2023/08/13 00:30:49;;;;;;;3.25;1.70;;;17.10;99.90;;;;;;5051008;28;20121;-86
2023/08/13 00:33:15;;;;;;;4.80;1.50;;;17.10;99.90;;;;;;5050989;28;20040;-88
2023/08/13 00:35:40;;;;;;;3.17;1.52;;;17.00;99.90;;;;;;5050595;28;20021;-87
2023/08/13 00:38:06;;;;;;;2.95;1.45;;;17.00;99.90;;;;;;5051053;28;20047;-89
2023/08/13 00:40:34;;;;;;;2.55;1.48;;;16.90;99.90;;;;;;5051880;28;20021;-89
2023/08/13 00:43:00;;;;;;;4.93;1.73;;;16.90;99.90;;;;;;5052624;28;20035;-89
2023/08/13 00:45:25;;;;;;;3.28;1.42;;;16.80;99.90;;;;;;5051756;28;20017;-86
2023/08/13 00:47:52;;;;;;;3.47;1.58;;;16.80;99.90;;;;;;5052826;28;20112;-89
2023/08/13 00:50:17;;;;;;;3.55;1.50;;;16.80;99.90;;;;;;5052040;28;20059;-89
2023/08/13 00:52:44;;;;;;;4.28;1.33;;;16.80;99.90;;;;;;5053052;28;20053;-89
2023/08/13 00:55:11;;;;;;;2.47;1.50;;;16.70;99.90;;;;;;5052339;28;20025;-89
2023/08/13 00:57:37;;;;;;;7.40;1.13;;;16.70;99.90;;;;;;5051352;28;20123;-89
2023/08/13 01:00:06;;;;;;;6.78;1.40;;;16.80;99.90;;;;;;5051413;28;20441;-89
2023/08/13 01:02:32;;;;;;;3.22;1.90;;;16.80;99.90;;;;;;5052056;28;20086;-87
2023/08/13 01:04:59;;;;;;;5.35;1.13;;;16.80;99.90;;;;;;5051540;28;20033;-89
2023/08/13 01:07:39;;;;;;;2.42;0.90;;;16.80;99.90;;;;;;5052464;28;20071;-89
2023/08/13 01:10:26;;;;;;;3.60;1.35;;;16.80;99.90;;;;;;5052630;28;20029;-87
2023/08/13 01:13:08;;;;;;;2.40;1.27;;;16.80;99.90;;;;;;5052593;28;20095;-89
2023/08/13 01:15:37;;;;;;;3.33;1.38;;;16.80;99.90;;;;;;5052694;28;20029;-89
2023/08/13 01:18:05;;;;;;;4.50;1.60;;;16.70;99.90;;;;;;5051372;28;20413;-88
2023/08/13 01:20:34;;;;;;;3.65;1.20;;;16.70;99.90;;;;;;5051289;28;20021;-90
2023/08/13 01:23:00;;;;;;;4.07;1.95;;;16.70;99.90;;;;;;5051269;28;20428;-89
2023/08/13 01:25:26;;;;;;;5.60;1.40;;;16.60;99.90;;;;;;5051887;28;20124;-88
2023/08/13 01:27:58;;;;;;;2.92;1.42;;;16.70;99.90;;;;;;5052498;28;20021;-87
2023/08/13 01:30:29;;;;;;;4.03;1.33;;;16.60;99.90;;;;;;5050520;28;20025;-87
2023/08/13 01:33:00;;;;;;;4.00;1.15;;;16.60;99.90;;;;;;5051228;28;20025;-89
2023/08/13 01:35:27;;;;;;;3.60;1.38;;;16.50;99.90;;;;;;5051558;28;20485;-88
2023/08/13 01:37:54;;;;;;;3.35;1.33;;;16.50;99.90;;;;;;5054997;28;20068;-88
2023/08/13 01:40:21;;;;;;;2.25;1.50;;;16.50;99.90;;;;;;5055191;28;20108;-89
2023/08/13 01:42:46;;;;;;;2.90;1.15;;;16.50;99.90;;;;;;5053727;28;20033;-89
2023/08/13 01:45:12;;;;;;;8.45;1.88;;;16.40;99.90;;;;;;5054867;28;20147;-89
2023/08/13 01:47:38;;;;;;;6.63;1.70;;;16.40;99.90;;;;;;5056355;28;20098;-89
2023/08/13 01:50:04;;;;;;;5.75;1.17;;;16.40;99.90;;;;;;5056243;28;20021;-90
2023/08/13 01:52:31;;;;;;;3.35;1.42;;;16.30;99.90;;;;;;5055030;28;20035;-89
2023/08/13 01:54:56;;;;;;;5.88;1.33;;;16.30;99.90;;;;;;5054815;28;20029;-91
2023/08/13 01:57:22;;;;;;;2.55;1.38;;;16.30;99.90;;;;;;5055770;28;20397;-89
2023/08/13 01:59:48;;;;;;;3.25;1.42;;;16.30;99.90;;;;;;5056136;28;20025;-89
2023/08/13 02:02:13;;;;;;;3.28;1.23;;;16.20;99.90;;;;;;5056259;28;20028;-90
2023/08/13 02:04:39;;;;;;;;;;;16.20;99.90;;;;;;5064504;28;20029;-89
2023/08/13 02:07:04;;;;;;;2.55;1.05;;;16.10;99.90;;;;;;5058002;28;19905;-88
2023/08/13 02:09:30;;;;;;;5.63;1.23;;;16.10;99.90;;;;;;5054217;28;20438;-89
2023/08/13 02:11:56;;;;;;;2.60;1.40;;;16.10;99.90;;;;;;5053860;28;20032;-88
2023/08/13 02:14:21;;;;;;;3.15;1.27;;;16.10;99.90;;;;;;5054399;28;20029;-88
2023/08/13 02:16:47;;;;;;;5.03;1.40;;;16.10;99.90;;;;;;5054891;28;20033;-89
2023/08/13 02:19:12;;;;;;;;;;;16.10;99.90;;;;;;5055028;28;20493;-89
2023/08/13 02:21:38;;;;;;;2.17;1.00;;;16.10;99.90;;;;;;5054463;28;20361;-90
2023/08/13 02:24:04;;;;;;;;;;;16.00;99.90;;;;;;5043259;28;20033;-88
2023/08/13 02:26:29;;;;;;;5.60;1.30;;;16.00;99.90;;;;;;5035493;28;19912;-88
2023/08/13 02:28:55;;;;;;;3.55;1.20;;;16.00;99.90;;;;;;5034940;28;20037;-88
2023/08/13 02:31:21;;;;;;;2.47;1.20;;;16.00;99.90;;;;;;5034222;28;20432;-89
2023/08/13 02:33:46;;;;;;;3.22;1.30;;;16.00;99.90;;;;;;5033687;28;20449;-88
2023/08/13 02:36:12;;;;;;;2.58;1.20;;;16.00;99.90;;;;;;5034945;28;20640;-90
2023/08/13 02:38:37;;;;;;;;;;;15.90;99.90;;;;;;5035395;28;20037;-88
2023/08/13 02:41:03;;;;;;;5.45;1.10;;;15.90;99.90;;;;;;5033564;28;19919;-89
2023/08/13 02:43:47;;;;;;;3.22;1.48;;;15.90;99.90;;;;;;5050523;28;20045;-89
2023/08/13 02:46:13;;;;;;;4.05;1.30;;;15.90;99.90;;;;;;5035133;28;20112;-89
2023/08/13 02:48:38;;;;;;;5.43;1.77;;;15.90;99.90;;;;;;5045169;28;20052;-89
2023/08/13 02:51:04;;;;;;;9.00;1.48;;;15.90;99.90;;;;;;5054004;28;20060;-89
2023/08/13 02:53:30;;;;;;;5.65;1.48;;;15.90;99.90;;;;;;5054899;28;20025;-88
2023/08/13 02:55:55;;;;;;;3.28;1.00;;;15.90;99.90;;;;;;5053866;28;20029;-88
2023/08/13 02:58:21;;;;;;;3.92;1.60;;;15.90;99.90;;;;;;5053310;28;20036;-88
2023/08/13 03:00:46;;;;;;;2.90;0.98;;;15.90;99.90;;;;;;5053535;28;20123;-87
2023/08/13 03:03:12;;;;;;;;;;;15.90;99.90;;;;;;5055356;28;20089;-90
2023/08/13 03:05:37;;;;;;;4.55;1.38;;;15.90;99.90;;;;;;5053438;28;19971;-88
2023/08/13 03:08:03;;;;;;;2.03;1.20;;;15.90;99.90;;;;;;5054796;28;20039;-89
2023/08/13 03:10:29;;;;;;;7.20;1.38;;;15.80;99.90;;;;;;5053446;28;20025;-88
2023/08/13 03:12:55;;;;;;;5.28;1.25;;;15.80;99.90;;;;;;5053335;28;20049;-91
2023/08/13 03:15:20;;;;;;;3.35;1.55;;;15.80;99.90;;;;;;5054882;28;20028;-90
2023/08/13 03:17:46;;;;;;;3.25;1.00;;;15.80;99.90;;;;;;5054695;28;20040;-91
2023/08/13 03:20:12;;;;;;;7.07;1.33;;;15.80;99.90;;;;;;5053544;28;20021;-91
2023/08/13 03:22:37;;;;;;;5.85;1.48;;;15.80;99.90;;;;;;5054949;28;20021;-90
2023/08/13 03:25:03;;;;;;;;;;;15.80;99.90;;;;;;5054893;28;20180;-90
2023/08/13 03:27:29;;;;;;;4.50;1.17;;;15.80;99.90;;;;;;5054457;28;19908;-91
2023/08/13 03:29:54;;;;;;;3.17;1.40;;;15.80;99.90;;;;;;5053050;28;20029;-92
2023/08/13 03:32:20;;;;;;;3.65;1.35;;;15.80;99.90;;;;;;5053187;28;20029;-90
2023/08/13 03:34:45;;;;;;;;;;;15.80;99.90;;;;;;5053634;28;20032;-86
2023/08/13 03:37:11;;;;;;;4.47;1.50;;;15.80;99.90;;;;;;5044450;28;20016;-89
2023/08/13 03:39:37;;;;;;;;;;;15.80;99.90;;;;;;5039509;28;20050;-88
2023/08/13 03:42:02;;;;;;;6.15;1.73;;;15.80;99.90;;;;;;5046459;28;19912;-87
2023/08/13 03:44:28;;;;;;;4.53;1.52;;;15.80;99.90;;;;;;5048787;28;20509;-88
2023/08/13 03:46:54;;;;;;;;;;;15.80;99.90;;;;;;5048909;28;20024;-87
2023/08/13 03:49:19;;;;;;;3.90;1.88;;;15.80;99.90;;;;;;5042746;28;20301;-88
2023/08/13 03:51:45;;;;;;;2.75;1.30;;;15.80;99.90;;;;;;5039526;28;20403;-88
2023/08/13 03:54:10;;;;;;;5.82;1.52;;;15.80;99.90;;;;;;5045852;28;20032;-89
2023/08/13 03:56:36;;;;;;;4.78;1.63;;;15.80;99.90;;;;;;5044592;28;20087;-88
2023/08/13 03:59:02;;;;;;;4.68;1.10;;;15.80;99.90;;;;;;5048251;28;20044;-88
2023/08/13 04:01:27;;;;;;;6.93;1.45;;;15.80;99.90;;;;;;5036927;28;20683;-87
2023/08/13 04:03:53;;;;;;;;;;;15.90;99.90;;;;;;5043665;28;20029;-86
2023/08/13 04:06:19;;;;;;;5.55;1.80;;;15.90;99.90;;;;;;5038880;28;19967;-87
2023/08/13 04:08:44;;;;;;;2.60;1.50;;;15.90;99.90;;;;;;5040015;28;20117;-86
2023/08/13 04:11:10;;;;;;;3.40;1.30;;;16.00;99.90;;;;;;5045435;28;20040;-85
2023/08/13 04:13:35;;;;;;;;;;;16.10;99.90;;;;;;5048408;28;20124;-87
2023/08/13 04:16:01;;;;;;;2.38;1.30;;;16.10;99.90;;;;;;5039793;28;19911;-90
2023/08/13 04:18:27;;;;;;;5.45;1.73;;;16.20;99.90;;;;;;5040547;28;20038;-89
2023/08/13 04:20:52;;;;;;;6.25;1.38;;;16.30;99.90;;;;;;5044977;28;20029;-89
2023/08/13 04:23:18;;;;;;;4.32;1.58;;;16.40;99.90;;;;;;5038533;28;20087;-87
2023/08/13 04:25:44;;;;;;;4.43;1.05;;;16.50;99.90;;;;;;5040613;28;20032;-88
2023/08/13 04:28:09;;;;;;;5.10;1.42;;;16.60;99.90;;;;;;5031465;28;20032;-89
2023/08/13 04:30:35;;;;;;;4.63;1.23;;;16.70;99.90;;;;;;5033253;28;20025;-89
2023/08/13 04:33:02;;;;;;;5.18;1.55;;;16.80;99.90;;;;;;5035086;28;20030;-88
2023/08/13 04:35:27;;;;;;;3.05;0.80;;;16.80;99.90;;;;;;5038754;28;20061;-88
2023/08/13 04:37:53;;;;;;;2.50;1.52;;;16.90;99.90;;;;;;5044336;28;20072;-89
2023/08/13 04:40:19;;;;;;;4.95;2.00;;;17.10;99.90;;;;;;5050566;28;20125;-87
2023/08/13 04:42:45;;;;;;;2.10;1.20;;;17.20;99.90;;;;;;5033054;28;20033;-89
2023/08/13 04:45:15;;;;;;;8.25;1.80;;;17.20;99.90;;;;;;5035758;28;20029;-88
2023/08/13 04:47:41;;;;;;;2.30;1.10;;;17.30;99.90;;;;;;5041237;28;20466;-87
2023/08/13 04:50:08;;;;;;;4.38;1.10;;;17.40;99.90;;;;;;5042679;28;20039;-86
2023/08/13 04:52:33;;;;;;;5.55;1.23;;;17.50;99.90;;;;;;5051162;28;20032;-87
2023/08/13 04:54:59;;;;;;;1.90;1.40;;;17.70;99.90;;;;;;5052442;28;20029;-86
2023/08/13 04:57:26;;;;;;;4.50;1.70;;;17.80;99.90;;;;;;5051313;28;20071;-88
2023/08/13 04:59:51;;;;;;;7.25;1.48;;;17.90;99.90;;;;;;5041331;28;20069;-86
2023/08/13 05:02:17;;;;;;;2.20;1.10;;;18.00;99.90;;;;;;5030791;28;20021;-86
2023/08/13 05:04:43;;;;;;;3.53;1.10;;;18.10;99.90;;;;;;5031738;28;20113;-86
2023/08/13 05:07:08;;;;;;;4.47;1.73;;;18.30;99.90;;;;;;5030779;28;20037;-87
2023/08/13 05:09:34;;;;;;;3.53;1.27;;;18.40;99.90;;;;;;5030459;28;20041;-87
2023/08/13 05:12:01;;;;;;;13.65;1.70;;;18.60;99.90;;;;;;5034076;28;20803;-82
2023/08/13 05:14:26;;;;;;;3.08;1.42;;;18.70;99.90;;;;;;5036123;28;20033;-87
2023/08/13 05:16:54;;;;;;;2.83;1.15;;;18.80;99.90;;;;;;5037859;28;20407;-87
2023/08/13 05:19:20;;;;;;;3.88;1.70;;;19.00;99.90;;;;;;5037484;28;20111;-83
2023/08/13 05:21:46;;;;;;;4.63;1.73;;;19.10;99.90;;;;;;5035058;28;20022;-84
2023/08/13 05:24:11;;;;;;;6.78;1.50;;;19.30;99.90;;;;;;5035387;28;20513;-85
2023/08/13 05:26:37;;;;;;;4.15;1.48;;;19.60;99.90;;;;;;5035408;28;20029;-84
2023/08/13 05:29:03;;;;;;;9.45;1.70;;;20.00;99.90;;;;;;5040421;28;20021;-85
2023/08/13 05:31:30;;;;;;;5.05;2.30;;;20.30;99.90;;;;;;5050138;28;20497;-84
2023/08/13 05:33:58;;;;;;;3.80;2.00;;;20.60;99.90;;;;;;5055704;28;20017;-86
2023/08/13 05:36:25;;;;;;;3.17;1.30;;;21.00;99.90;;;;;;5055845;28;20032;-86
2023/08/13 05:38:50;;;;;;;2.33;1.35;;;21.40;96.20;;;;;;5053067;28;20673;-84
2023/08/13 05:41:16;;;;;;;6.07;1.60;;;21.80;93.50;;;;;;5054264;28;20112;-85
2023/08/13 05:44:00;;;;;;;2.92;1.20;;;22.10;89.70;;;;;;5054992;28;20402;-84
2023/08/13 05:46:26;;;;;;;3.55;1.83;;;22.30;85.40;;;;;;5054649;28;20082;-85
2023/08/13 05:48:52;;;;;;;3.03;1.60;;;22.50;82.30;;;;;;5054830;28;20032;-85
2023/08/13 05:51:17;;;;;;;4.15;1.85;;;22.80;81.50;;;;;;5053760;28;20024;-85
2023/08/13 05:53:43;;;;;;;3.78;2.15;;;23.40;77.40;;;;;;5054571;28;20032;-85
2023/08/13 05:56:08;;;;;;;3.47;1.70;;;24.00;73.60;;;;;;5054549;28;20025;-84
2023/08/13 05:58:34;;;;;;;3.47;1.73;;;24.20;72.60;;;;;;5054508;28;20041;-85
2023/08/13 06:01:00;;;;;;;2.53;1.35;;;24.60;71.90;;;;;;5052785;28;20431;-85
2023/08/13 06:03:26;;;;;;;2.90;1.35;;;24.90;69.40;;;;;;5054470;28;20115;-85
2023/08/13 06:05:51;;;;;;;4.55;1.63;;;25.30;65.80;;;;;;5054315;28;20029;-85
2023/08/13 06:08:18;;;;;;;3.20;1.30;;;25.70;61.30;;;;;;5040260;28;20084;-85
2023/08/13 06:10:43;;;;;;;2.70;1.25;;;26.30;57.30;;;;;;5034540;28;20025;-86
2023/08/13 06:13:09;;;;;;;3.10;1.40;;;26.80;54.70;;;;;;5033215;28;20215;-85
2023/08/13 06:15:35;;;;;;;3.13;1.30;;;27.50;52.40;;;;;;5034491;28;20022;-86
2023/08/13 06:18:00;;;;;;;3.00;1.65;;;28.20;50.10;;;;;;5034712;28;20041;-86
2023/08/13 06:20:26;;;;;;;6.40;1.30;;;28.80;47.10;;;;;;5035020;28;20053;-87
2023/08/13 06:22:52;;;;;;;4.03;1.52;;;29.50;44.70;;;;;;5034173;28;20111;-86
2023/08/13 06:25:17;;;;;;;4.53;1.45;;;30.10;43.60;;;;;;5046759;28;20106;-87
2023/08/13 06:27:43;;;;;;;4.03;1.20;;;30.60;43.20;;;;;;5054682;28;20025;-87
2023/08/13 06:30:09;;;;;;;1.73;1.27;;;30.90;40.30;;;;;;5054600;28;20032;-86
2023/08/13 06:32:35;;;;;;;3.63;1.33;;;31.40;40.00;;;;;;5054474;28;20040;-87
2023/08/13 06:35:01;;;;;;;7.30;1.52;;;31.80;40.30;;;;;;5041589;28;20021;-86
2023/08/13 06:37:28;;;;;;;7.35;1.50;;;32.40;41.00;;;;;;5033169;28;20071;-86
2023/08/13 06:39:54;;;;;;;2.58;1.10;;;32.40;41.30;;;;;;5032658;28;20026;-86
2023/08/13 06:42:19;;;;;;;3.03;1.13;;;32.60;40.60;;;;;;5033609;28;20025;-86
2023/08/13 06:44:45;;;;;;;8.77;1.77;;;32.90;39.40;;;;;;5034354;28;20120;-87
2023/08/13 06:47:11;;;;;;;2.90;1.88;;;33.30;37.90;;;;;;5034663;28;20022;-87
2023/08/13 06:49:36;;;;;;;5.00;1.70;;;33.70;36.90;;;;;;5034397;28;20025;-85
2023/08/13 06:52:02;;;;;;;7.70;2.65;;;33.80;35.80;;;;;;5035494;28;20036;-86
2023/08/13 06:54:28;;;;;;;5.10;1.95;;;34.00;36.00;;;;;;5053265;28;20018;-87
2023/08/13 06:56:54;;;;;;;5.43;1.58;;;34.10;35.70;;;;;;5038433;28;20091;-87
2023/08/13 06:59:20;;;;;;;3.40;1.63;;;34.10;35.00;;;;;;5032555;28;20080;-85
2023/08/13 07:01:46;;;;;;;3.20;1.20;;;34.00;34.80;;;;;;5033844;28;20083;-85
2023/08/13 07:04:12;;;;;;;7.93;1.45;;;34.00;35.30;;;;;;5030755;28;20037;-87
2023/08/13 07:06:37;;;;;;;1.48;1.00;;;34.10;34.60;;;;;;5031672;28;20033;-86
2023/08/13 07:09:03;;;;;;;9.13;1.45;;;34.20;35.50;;;;;;5032631;28;20514;-86
2023/08/13 07:11:32;;;;;;;3.30;1.50;;;34.30;35.30;;;;;;5033400;28;20079;-85
2023/08/13 07:13:58;;;;;;;2.95;1.73;;;34.20;35.90;;;;;;5034118;28;20049;-87
2023/08/13 07:16:23;;;;;;;3.80;2.20;;;34.00;36.30;;;;;;5032533;28;20036;-85
2023/08/13 07:18:49;;;;;;;10.23;2.25;;;33.90;38.50;;;;;;5033875;28;20045;-87
2023/08/13 07:21:15;;;;;;;4.95;2.85;;;33.90;38.50;;;;;;5033810;28;20036;-87
2023/08/13 07:23:40;;;;;;;3.67;2.10;;;34.10;38.60;;;;;;5032487;28;20033;-87
2023/08/13 07:26:06;;;;;;;4.93;2.10;;;34.10;38.20;;;;;;5031979;28;20041;-86
2023/08/13 07:28:35;;;;;;;8.48;2.50;;;34.10;38.60;;;;;;5031638;28;20091;-85
2023/08/13 07:31:04;;;;;;;4.40;1.80;;;34.30;37.90;;;;;;5032209;28;20112;-86
2023/08/13 07:33:30;;;;;;;9.57;2.00;;;34.20;37.60;;;;;;5030609;28;20037;-85
2023/08/13 07:35:57;;;;;;;5.38;1.70;;;34.10;38.70;;;;;;5031714;28;20017;-86
2023/08/13 07:38:23;;;;;;;5.13;1.50;;;34.30;38.20;;;;;;5030345;28;20068;-85
2023/08/13 07:40:49;;;;;;;7.47;2.05;;;34.60;37.70;;;;;;5039607;28;20056;-85
2023/08/13 07:43:14;;;;;;;6.80;1.83;;;34.80;36.70;;;;;;5050082;28;20047;-87
2023/08/13 07:45:40;;;;;;;6.43;1.50;;;34.90;36.00;;;;;;5051270;28;20014;-85
2023/08/13 07:48:06;;;;;;;9.25;2.05;;;35.00;36.60;;;;;;5047734;28;20041;-84
2023/08/13 07:50:32;;;;;;;2.92;1.70;;;35.00;37.20;;;;;;5051899;28;20104;-86
2023/08/13 07:52:58;;;;;;;3.28;1.65;;;35.50;36.00;;;;;;5050804;28;20112;-87
2023/08/13 07:55:23;;;;;;;3.72;1.30;;;35.40;35.60;;;;;;5032102;28;20097;-87
2023/08/13 07:57:49;;;;;;;3.22;1.17;;;35.60;35.70;;;;;;5031765;28;20504;-86
2023/08/13 08:00:16;;;;;;;8.82;1.85;;;35.70;35.10;;;;;;5032914;28;20363;-87
2023/08/13 08:02:42;;;;;;;2.38;1.40;;;35.80;34.20;;;;;;5032542;28;20056;-85
2023/08/13 08:05:09;;;;;;;9.43;1.60;;;35.80;35.00;;;;;;5031543;28;20494;-86
2023/08/13 08:07:35;;;;;;;5.65;1.67;;;35.90;35.00;;;;;;5030185;28;20078;-87
2023/08/13 08:10:02;;;;;;;5.88;1.45;;;36.50;34.20;;;;;;5042056;28;20588;-87
2023/08/13 08:12:27;;;;;;;3.95;1.25;;;36.50;34.10;;;;;;5051450;28;20043;-85
2023/08/13 08:14:53;;;;;;;5.90;1.45;;;36.60;34.40;;;;;;5050745;28;20033;-86
2023/08/13 08:17:19;;;;;;;1.92;1.33;;;36.70;33.60;;;;;;5036590;28;20112;-87
2023/08/13 08:19:45;;;;;;;2.90;1.35;;;36.90;33.20;;;;;;5031505;28;20119;-86
2023/08/13 08:22:11;;;;;;;4.00;1.30;;;37.10;33.10;;;;;;5032963;28;20095;-87
2023/08/13 08:24:37;;;;;;;7.65;1.60;;;37.00;32.40;;;;;;5031739;28;20096;-86
2023/08/13 08:27:03;;;;;;;3.85;1.60;;;37.30;32.50;;;;;;5033180;28;20021;-86
2023/08/13 08:29:28;;;;;;;4.07;1.20;;;37.30;32.80;;;;;;5035774;28;20089;-85
2023/08/13 08:31:54;;;;;;;4.32;1.77;;;37.50;32.10;;;;;;5033283;28;20028;-86
2023/08/13 08:34:20;;;;;;;7.35;1.50;;;37.50;32.30;;;;;;5031822;28;20083;-86
2023/08/13 08:36:45;;;;;;;3.35;1.17;;;37.80;31.60;;;;;;5031369;28;20033;-87
2023/08/13 08:39:12;;;;;;;3.67;1.33;;;37.80;30.70;;;;;;5029675;28;20104;-85
2023/08/13 08:41:43;;;;;;;5.18;1.48;;;37.50;31.80;;;;;;5029643;28;20033;-86
2023/08/13 08:44:16;;;;;;;2.65;1.20;;;37.60;31.40;;;;;;5032607;28;20068;-86
2023/08/13 08:46:42;;;;;;;2.80;1.58;;;37.60;31.30;;;;;;5032072;28;20029;-86
2023/08/13 08:49:08;;;;;;;8.82;1.63;;;37.20;31.10;;;;;;5039758;28;20067;-86
2023/08/13 08:51:34;;;;;;;9.65;1.33;;;36.80;31.70;;;;;;5038706;28;20379;-86
2023/08/13 08:54:03;;;;;;;3.80;1.45;;;36.90;32.60;;;;;;5031794;28;20675;-85
2023/08/13 08:56:29;;;;;;;3.97;1.23;;;37.20;31.40;;;;;;5030262;28;20033;-86
2023/08/13 08:58:55;;;;;;;2.88;1.20;;;37.30;31.00;;;;;;5031625;28;20040;-87
2023/08/13 09:01:20;;;;;;;3.53;1.52;;;37.40;32.20;;;;;;5031522;28;20030;-86
2023/08/13 09:03:46;;;;;;;3.95;1.67;;;37.80;31.80;;;;;;5029794;28;20057;-85
2023/08/13 09:06:12;;;;;;;15.65;1.27;;;37.80;31.80;;;;;;5031198;28;20450;-86
2023/08/13 09:08:37;;;;;;;5.00;1.25;;;37.60;30.40;;;;;;5031386;28;20034;-87
2023/08/13 09:11:03;;;;;;;6.57;1.38;;;37.50;30.00;;;;;;5037557;28;20026;-87
2023/08/13 09:13:29;;;;;;;2.63;1.73;;;37.70;30.70;;;;;;5030722;28;20054;-86
2023/08/13 09:15:54;;;;;;;7.00;1.33;;;37.50;30.60;;;;;;5030402;28;20033;-86
2023/08/13 09:18:20;;;;;;;8.73;1.40;;;37.60;30.70;;;;;;5031528;28;20045;-86
2023/08/13 09:20:48;;;;;;;1.80;1.35;;;37.60;29.30;;;;;;5032122;28;20044;-86
2023/08/13 09:23:24;;;;;;;2.17;1.30;;;37.60;29.90;;;;;;5030975;28;20036;-86
2023/08/13 09:25:54;;;;;;;2.67;1.13;;;37.50;30.50;;;;;;5029551;28;20024;-86
2023/08/13 09:28:19;;;;;;;3.30;1.42;;;37.60;31.30;;;;;;5030137;28;20041;-85
2023/08/13 09:30:45;;;;;;;6.50;1.10;;;37.50;31.30;;;;;;5030407;28;20072;-86
2023/08/13 09:33:14;;;;;;;4.13;1.55;;;37.50;31.70;;;;;;5033366;28;20026;-85
2023/08/13 09:35:41;;;;;;;5.35;1.35;;;37.70;31.90;;;;;;5040939;28;20025;-86
2023/08/13 09:38:07;;;;;;;3.13;1.23;;;37.90;30.70;;;;;;5038713;28;20104;-85
2023/08/13 09:40:33;;;;;;;1.58;0.85;;;37.60;31.10;;;;;;5042552;28;20426;-86
2023/08/13 09:43:06;;;;;;;1.83;1.10;;;37.50;30.70;;;;;;5045908;28;20040;-87
2023/08/13 09:45:32;;;;;;;3.25;1.50;;;37.90;29.90;;;;;;5038276;28;20087;-84
2023/08/13 09:48:03;;;;;;;3.58;1.10;;;38.20;29.90;;;;;;5038643;28;20477;-86
2023/08/13 09:50:41;;;;;;;3.17;1.15;;;38.50;29.30;;;;;;5037525;28;20037;-87
2023/08/13 09:53:14;;;;;;;2.08;1.23;;;38.20;29.20;;;;;;5035336;28;20026;-87
2023/08/13 09:55:48;;;;;;;2.42;1.10;;;38.20;29.60;;;;;;5038763;28;20033;-87
2023/08/13 09:58:17;;;;;;;5.22;1.05;;;38.30;29.80;;;;;;5033300;28;20041;-87
2023/08/13 10:00:43;;;;;;;3.47;1.67;;;38.10;29.60;;;;;;5036557;28;20020;-86
2023/08/13 10:03:09;;;;;;;3.88;1.00;;;37.90;30.00;;;;;;5032989;28;20088;-84
2023/08/13 10:05:36;;;;;;;3.22;1.65;;;37.90;30.10;;;;;;5043596;28;20033;-87
2023/08/13 10:08:02;;;;;;;10.82;1.10;;;37.90;30.00;;;;;;5050324;28;20040;-84
2023/08/13 10:10:30;;;;;;;3.85;1.10;;;37.80;29.90;;;;;;5034968;28;20029;-86
2023/08/13 10:12:56;;;;;;;4.30;1.30;;;37.50;30.70;;;;;;5032934;28;20522;-86
2023/08/13 10:15:22;;;;;;;5.60;1.30;;;37.60;31.20;;;;;;5033409;28;20395;-87
2023/08/13 10:17:49;;;;;;;5.32;1.10;;;37.10;30.40;;;;;;5033072;28;20041;-86
2023/08/13 10:20:17;;;;;;;1.65;1.02;;;36.50;31.30;;;;;;5052352;28;20029;-85
2023/08/13 10:22:44;;;;;;;1.63;1.00;;;36.20;32.40;;;;;;5054214;28;20079;-84
2023/08/13 10:25:34;;;;;;;1.77;1.15;;;35.70;32.10;;;;;;5053693;28;20044;-84
2023/08/13 10:28:18;;;;;;;6.03;1.00;;;34.90;34.50;;;;;;5053544;28;20033;-85
2023/08/13 10:30:45;;;;;;;2.13;1.00;;;34.50;34.50;;;;;;5054641;28;20029;-85
2023/08/13 10:33:10;;;;;;;3.85;0.93;;;34.00;34.70;;;;;;5054341;28;20021;-86
2023/08/13 10:35:39;;;;;;;7.18;1.40;;;33.60;36.20;;;;;;5052990;28;20024;-86
2023/08/13 10:38:06;;;;;;;4.70;1.50;;;33.30;36.90;;;;;;5051770;28;20033;-86
2023/08/13 10:40:31;;;;;;;3.90;1.20;;;33.20;37.80;;;;;;5051228;28;20025;-84
2023/08/13 10:43:04;;;;;;;3.08;1.10;;;32.80;37.40;;;;;;5053168;28;20031;-86
2023/08/13 10:45:35;;;;;;;3.20;1.48;;;32.50;36.50;;;;;;5052645;28;20043;-86
2023/08/13 10:48:08;;;;;;;7.07;1.75;;;32.40;37.60;;;;;;5052032;28;20167;-86
2023/08/13 10:50:41;;;;;;;5.50;1.23;;;32.20;37.90;;;;;;5051994;28;20025;-86
2023/08/13 10:53:26;;;;;;;7.05;1.20;;;32.00;38.80;;;;;;5053688;28;20029;-86
2023/08/13 10:55:54;;;;;;;2.30;1.40;;;31.90;37.90;;;;;;5054569;28;20074;-86
2023/08/13 10:58:31;;;;;;;2.45;1.30;;;31.60;37.30;;;;;;5053003;28;20033;-85
2023/08/13 11:01:09;;;;;;;2.33;1.38;;;31.40;39.10;;;;;;5053382;28;20054;-87
2023/08/13 11:04:02;;;;;;;2.75;1.33;;;31.20;39.60;;;;;;5054038;28;20059;-87
2023/08/13 11:06:28;;;;;;;3.45;1.30;;;31.20;39.70;;;;;;5053785;28;20025;-87
2023/08/13 11:08:54;;;;;;;2.97;1.20;;;31.20;39.30;;;;;;5053954;28;20378;-86
2023/08/13 11:11:20;;;;;;;12.02;1.50;;;31.10;39.20;;;;;;5053625;28;20029;-85
2023/08/13 11:13:47;;;;;;;3.10;1.13;;;31.00;39.80;;;;;;5051894;28;20080;-87
2023/08/13 11:16:13;;;;;;;5.35;1.30;;;31.00;40.60;;;;;;5053218;28;20029;-86
2023/08/13 11:18:40;;;;;;;3.75;0.90;;;30.90;41.10;;;;;;5053632;28;20041;-86
2023/08/13 11:21:06;;;;;;;3.60;1.10;;;30.90;41.00;;;;;;5052617;28;20021;-87
2023/08/13 11:23:32;;;;;;;3.65;0.82;;;31.00;39.90;;;;;;5053131;28;20029;-86
2023/08/13 11:25:58;;;;;;;5.18;1.20;;;30.90;39.60;;;;;;5052091;28;20036;-86
2023/08/13 11:28:28;;;;;;;5.28;1.13;;;30.90;39.90;;;;;;5052350;28;20116;-87
2023/08/13 11:30:57;;;;;;;2.60;1.10;;;30.90;39.60;;;;;;5052151;28;20025;-85
2023/08/13 11:33:24;;;;;;;5.80;1.10;;;30.80;40.40;;;;;;5051410;28;20079;-84
2023/08/13 11:35:50;;;;;;;5.90;1.48;;;30.80;41.70;;;;;;5052232;28;20041;-85
2023/08/13 11:38:16;;;;;;;5.07;1.33;;;30.70;41.30;;;;;;5053083;28;20104;-85
2023/08/13 11:40:42;;;;;;;2.33;1.10;;;30.70;41.40;;;;;;5058578;28;20017;-85
2023/08/13 11:43:13;;;;;;;2.85;1.33;;;30.80;41.70;;;;;;5054499;28;20465;-87
2023/08/13 11:45:39;;;;;;;1.75;1.00;;;30.70;41.00;;;;;;5051983;28;20079;-86
2023/08/13 11:48:16;;;;;;;2.22;1.20;;;30.70;41.50;;;;;;5052920;28;20397;-86
2023/08/13 11:50:47;;;;;;;1.95;1.10;;;30.70;40.60;;;;;;5042630;28;20030;-87
2023/08/13 11:53:15;;;;;;;5.60;1.25;;;30.80;41.40;;;;;;5032047;28;20022;-87
2023/08/13 11:55:44;;;;;;;2.20;1.33;;;30.80;40.50;;;;;;5031538;28;20100;-87
2023/08/13 11:58:10;;;;;;;2.25;1.00;;;30.80;41.40;;;;;;5031943;28;20033;-86
2023/08/13 12:00:37;;;;;;;2.67;1.45;;;30.70;41.10;;;;;;5032309;28;20037;-87
2023/08/13 12:03:03;;;;;;;2.30;1.30;;;30.70;40.80;;;;;;5033653;28;20109;-87
2023/08/13 12:05:33;;;;;;;3.28;1.40;;;30.70;40.10;;;;;;5032558;28;20018;-87
2023/08/13 12:08:01;;;;;;;3.80;1.38;;;30.70;40.20;;;;;;5032089;28;20351;-86
2023/08/13 12:10:27;;;;;;;1.98;1.20;;;30.50;39.90;;;;;;5031699;28;20037;-87
2023/08/13 12:12:53;;;;;;;8.25;1.60;;;30.50;42.00;;;;;;5031689;28;20041;-87
2023/08/13 12:15:23;;;;;;;2.83;1.10;;;30.60;40.70;;;;;;5033434;28;20040;-85
2023/08/13 12:17:49;;;;;;;4.70;1.25;;;30.60;41.00;;;;;;5049274;28;20033;-86
2023/08/13 12:20:15;;;;;;;3.03;1.23;;;30.50;40.20;;;;;;5049788;28;20039;-86
2023/08/13 12:22:41;;;;;;;2.35;1.33;;;30.60;41.40;;;;;;5043374;28;20017;-86
2023/08/13 12:25:07;;;;;;;4.30;1.20;;;30.60;42.00;;;;;;5030480;28;20107;-86
2023/08/13 12:27:33;;;;;;;3.70;1.33;;;30.70;40.80;;;;;;5033030;28;20115;-86
2023/08/13 12:29:59;;;;;;;3.33;1.20;;;30.80;41.00;;;;;;5044558;28;20033;-86
2023/08/13 12:32:24;;;;;;;5.63;1.52;;;30.80;40.90;;;;;;5031709;28;20032;-86
2023/08/13 12:34:50;;;;;;;2.30;1.35;;;30.80;41.00;;;;;;5030985;28;20022;-87
2023/08/13 12:37:15;;;;;;;1.88;1.17;;;30.80;41.70;;;;;;5032113;28;20656;-87
2023/08/13 12:39:42;;;;;;;2.75;1.30;;;30.70;41.70;;;;;;5032175;28;20032;-86
2023/08/13 12:42:09;;;;;;;5.95;1.63;;;30.80;42.20;;;;;;5032316;28;20203;-86
2023/08/13 12:44:35;;;;;;;3.05;1.23;;;30.70;41.10;;;;;;5030155;28;20124;-87
2023/08/13 12:47:00;;;;;;;3.45;1.30;;;30.70;41.60;;;;;;5031108;28;20112;-86
2023/08/13 12:49:26;;;;;;;4.18;1.45;;;30.70;42.40;;;;;;5035063;28;20036;-86